sensor_id;sensor_type;location;lat;lon;timestamp;P1;durP1;ratioP1;P2;durP2;ratioP2
8895;SDS011;4484;48.928;10.066;2024-02-04T00:02:10;2.40;;;1.00;;
8895;SDS011;4484;48.928;10.066;2024-02-04T00:04:40;0.83;;;0.80;;
8895;SDS011;4484;48.928;10.066;2024-02-04T00:07:08;1.20;;;0.90;;
8895;SDS011;4484;48.928;10.066;2024-02-04T00:09:34;3.60;;;1.00;;
8895;SDS011;4484;48.928;10.066;2024-02-04T00:12:02;1.13;;;0.90;;
8895;SDS011;4484;48.928;10.066;2024-02-04T00:14:30;1.20;;;1.10;;
8895;SDS011;4484;48.928;10.066;2024-02-04T00:16:58;1.40;;;1.17;;
8895;SDS011;4484;48.928;10.066;2024-02-04T00:19:25;2.00;;;1.40;;
8895;SDS011;4484;48.928;10.066;2024-02-04T00:21:53;1.63;;;1.30;;
8895;SDS011;4484;48.928;10.066;2024-02-04T00:24:20;1.43;;;1.10;;
8895;SDS011;4484;48.928;10.066;2024-02-04T00:26:47;1.33;;;1.10;;
8895;SDS011;4484;48.928;10.066;2024-02-04T00:29:14;1.50;;;1.23;;
8895;SDS011;4484;48.928;10.066;2024-02-04T00:31:41;2.93;;;1.10;;
8895;SDS011;4484;48.928;10.066;2024-02-04T00:34:08;1.30;;;1.20;;
8895;SDS011;4484;48.928;10.066;2024-02-04T00:36:35;2.43;;;1.50;;
8895;SDS011;4484;48.928;10.066;2024-02-04T00:39:02;1.80;;;1.40;;
8895;SDS011;4484;48.928;10.066;2024-02-04T00:41:29;2.87;;;1.27;;
8895;SDS011;4484;48.928;10.066;2024-02-04T00:43:56;1.50;;;1.30;;
8895;SDS011;4484;48.928;10.066;2024-02-04T00:46:23;2.37;;;1.43;;
8895;SDS011;4484;48.928;10.066;2024-02-04T00:48:50;1.33;;;1.23;;
8895;SDS011;4484;48.928;10.066;2024-02-04T00:51:17;2.20;;;1.23;;
8895;SDS011;4484;48.928;10.066;2024-02-04T00:53:46;1.40;;;1.30;;
8895;SDS011;4484;48.928;10.066;2024-02-04T00:56:13;1.50;;;1.40;;
8895;SDS011;4484;48.928;10.066;2024-02-04T00:58:39;1.47;;;1.37;;
8895;SDS011;4484;48.928;10.066;2024-02-04T01:01:06;2.47;;;1.40;;
8895;SDS011;4484;48.928;10.066;2024-02-04T01:03:34;1.83;;;1.23;;
8895;SDS011;4484;48.928;10.066;2024-02-04T01:06:01;1.37;;;1.20;;
8895;SDS011;4484;48.928;10.066;2024-02-04T01:08:27;2.20;;;1.43;;
8895;SDS011;4484;48.928;10.066;2024-02-04T01:10:54;1.60;;;1.50;;
8895;SDS011;4484;48.928;10.066;2024-02-04T01:13:21;1.60;;;1.50;;
8895;SDS011;4484;48.928;10.066;2024-02-04T01:15:48;1.50;;;1.20;;
8895;SDS011;4484;48.928;10.066;2024-02-04T01:18:15;1.50;;;1.40;;
8895;SDS011;4484;48.928;10.066;2024-02-04T01:20:42;2.43;;;1.23;;
8895;SDS011;4484;48.928;10.066;2024-02-04T01:23:09;2.13;;;1.37;;
8895;SDS011;4484;48.928;10.066;2024-02-04T01:25:36;1.73;;;1.57;;
8895;SDS011;4484;48.928;10.066;2024-02-04T01:28:06;1.50;;;1.30;;
8895;SDS011;4484;48.928;10.066;2024-02-04T01:30:33;1.47;;;1.30;;
8895;SDS011;4484;48.928;10.066;2024-02-04T01:33:00;2.10;;;1.10;;
8895;SDS011;4484;48.928;10.066;2024-02-04T01:35:27;1.57;;;1.00;;
8895;SDS011;4484;48.928;10.066;2024-02-04T01:37:54;2.10;;;1.50;;
8895;SDS011;4484;48.928;10.066;2024-02-04T01:40:21;1.07;;;1.03;;
8895;SDS011;4484;48.928;10.066;2024-02-04T01:42:48;1.30;;;1.20;;
8895;SDS011;4484;48.928;10.066;2024-02-04T01:45:15;1.10;;;1.00;;
8895;SDS011;4484;48.928;10.066;2024-02-04T01:47:42;1.87;;;1.20;;
8895;SDS011;4484;48.928;10.066;2024-02-04T01:50:09;1.30;;;1.20;;
8895;SDS011;4484;48.928;10.066;2024-02-04T01:52:37;1.40;;;1.13;;
8895;SDS011;4484;48.928;10.066;2024-02-04T01:55:05;2.07;;;1.40;;
8895;SDS011;4484;48.928;10.066;2024-02-04T01:57:33;1.30;;;1.20;;
8895;SDS011;4484;48.928;10.066;2024-02-04T02:00:02;1.57;;;1.30;;
8895;SDS011;4484;48.928;10.066;2024-02-04T02:02:31;2.23;;;1.60;;
8895;SDS011;4484;48.928;10.066;2024-02-04T02:05:00;3.43;;;1.00;;
8895;SDS011;4484;48.928;10.066;2024-02-04T02:07:27;1.70;;;1.13;;
8895;SDS011;4484;48.928;10.066;2024-02-04T02:09:55;2.90;;;0.90;;
8895;SDS011;4484;48.928;10.066;2024-02-04T02:12:24;2.67;;;1.10;;
8895;SDS011;4484;48.928;10.066;2024-02-04T02:14:57;2.30;;;1.40;;
8895;SDS011;4484;48.928;10.066;2024-02-04T02:20:27;1.40;;;1.30;;
8895;SDS011;4484;48.928;10.066;2024-02-04T02:23:07;2.90;;;1.30;;
8895;SDS011;4484;48.928;10.066;2024-02-04T02:25:38;1.20;;;1.10;;
8895;SDS011;4484;48.928;10.066;2024-02-04T02:28:07;1.73;;;1.23;;
8895;SDS011;4484;48.928;10.066;2024-02-04T02:30:34;1.77;;;1.00;;
8895;SDS011;4484;48.928;10.066;2024-02-04T02:33:01;0.93;;;0.90;;
8895;SDS011;4484;48.928;10.066;2024-02-04T02:35:28;1.27;;;0.97;;
8895;SDS011;4484;48.928;10.066;2024-02-04T02:37:56;0.90;;;0.90;;
8895;SDS011;4484;48.928;10.066;2024-02-04T02:40:45;1.20;;;1.00;;
8895;SDS011;4484;48.928;10.066;2024-02-04T02:43:14;1.00;;;0.87;;
8895;SDS011;4484;48.928;10.066;2024-02-04T02:45:42;1.80;;;1.00;;
8895;SDS011;4484;48.928;10.066;2024-02-04T02:48:10;0.80;;;0.77;;
8895;SDS011;4484;48.928;10.066;2024-02-04T02:50:38;0.70;;;0.60;;
8895;SDS011;4484;48.928;10.066;2024-02-04T02:53:05;1.80;;;0.83;;
8895;SDS011;4484;48.928;10.066;2024-02-04T02:55:32;1.10;;;1.00;;
8895;SDS011;4484;48.928;10.066;2024-02-04T02:57:59;3.33;;;0.70;;
8895;SDS011;4484;48.928;10.066;2024-02-04T03:00:26;1.77;;;0.60;;
8895;SDS011;4484;48.928;10.066;2024-02-04T03:02:53;1.57;;;0.90;;
8895;SDS011;4484;48.928;10.066;2024-02-04T03:05:20;0.83;;;0.83;;
8895;SDS011;4484;48.928;10.066;2024-02-04T03:07:47;0.70;;;0.70;;
8895;SDS011;4484;48.928;10.066;2024-02-04T03:10:14;0.70;;;0.70;;
8895;SDS011;4484;48.928;10.066;2024-02-04T03:12:41;4.43;;;0.80;;
8895;SDS011;4484;48.928;10.066;2024-02-04T03:15:08;0.60;;;0.60;;
8895;SDS011;4484;48.928;10.066;2024-02-04T03:17:35;1.07;;;0.80;;
8895;SDS011;4484;48.928;10.066;2024-02-04T03:20:02;0.47;;;0.47;;
8895;SDS011;4484;48.928;10.066;2024-02-04T03:22:30;0.60;;;0.60;;
8895;SDS011;4484;48.928;10.066;2024-02-04T03:24:57;0.67;;;0.60;;
8895;SDS011;4484;48.928;10.066;2024-02-04T03:27:23;0.67;;;0.67;;
8895;SDS011;4484;48.928;10.066;2024-02-04T03:29:50;0.80;;;0.80;;
8895;SDS011;4484;48.928;10.066;2024-02-04T03:32:17;0.70;;;0.70;;
8895;SDS011;4484;48.928;10.066;2024-02-04T03:34:45;1.60;;;0.70;;
8895;SDS011;4484;48.928;10.066;2024-02-04T03:37:12;0.77;;;0.70;;
8895;SDS011;4484;48.928;10.066;2024-02-04T03:39:39;0.53;;;0.53;;
8895;SDS011;4484;48.928;10.066;2024-02-04T03:42:06;0.90;;;0.60;;
8895;SDS011;4484;48.928;10.066;2024-02-04T03:44:33;0.60;;;0.40;;
8895;SDS011;4484;48.928;10.066;2024-02-04T03:47:00;0.50;;;0.50;;
8895;SDS011;4484;48.928;10.066;2024-02-04T03:49:29;0.80;;;0.63;;
8895;SDS011;4484;48.928;10.066;2024-02-04T03:51:56;0.80;;;0.80;;
8895;SDS011;4484;48.928;10.066;2024-02-04T03:54:23;0.70;;;0.70;;
8895;SDS011;4484;48.928;10.066;2024-02-04T03:56:50;0.93;;;0.77;;
8895;SDS011;4484;48.928;10.066;2024-02-04T03:59:17;0.80;;;0.70;;
8895;SDS011;4484;48.928;10.066;2024-02-04T04:01:50;1.07;;;0.90;;
8895;SDS011;4484;48.928;10.066;2024-02-04T04:04:19;1.00;;;0.80;;
8895;SDS011;4484;48.928;10.066;2024-02-04T04:06:46;0.93;;;0.80;;
8895;SDS011;4484;48.928;10.066;2024-02-04T04:09:15;0.83;;;0.83;;
8895;SDS011;4484;48.928;10.066;2024-02-04T04:11:41;0.80;;;0.80;;
8895;SDS011;4484;48.928;10.066;2024-02-04T04:14:08;0.90;;;0.80;;
8895;SDS011;4484;48.928;10.066;2024-02-04T04:16:35;2.33;;;1.00;;
8895;SDS011;4484;48.928;10.066;2024-02-04T04:19:02;0.93;;;0.93;;
8895;SDS011;4484;48.928;10.066;2024-02-04T04:21:29;2.90;;;1.00;;
8895;SDS011;4484;48.928;10.066;2024-02-04T04:23:56;1.63;;;1.00;;
8895;SDS011;4484;48.928;10.066;2024-02-04T04:26:23;1.07;;;0.90;;
8895;SDS011;4484;48.928;10.066;2024-02-04T04:28:50;1.00;;;0.90;;
8895;SDS011;4484;48.928;10.066;2024-02-04T04:31:17;0.90;;;0.80;;
8895;SDS011;4484;48.928;10.066;2024-02-04T04:33:44;0.97;;;0.80;;
8895;SDS011;4484;48.928;10.066;2024-02-04T04:36:11;1.90;;;1.03;;
8895;SDS011;4484;48.928;10.066;2024-02-04T04:38:38;0.80;;;0.80;;
8895;SDS011;4484;48.928;10.066;2024-02-04T04:41:05;1.07;;;0.70;;
8895;SDS011;4484;48.928;10.066;2024-02-04T04:43:36;0.90;;;0.90;;
8895;SDS011;4484;48.928;10.066;2024-02-04T04:46:04;0.80;;;0.80;;
8895;SDS011;4484;48.928;10.066;2024-02-04T04:48:31;2.13;;;0.80;;
8895;SDS011;4484;48.928;10.066;2024-02-04T04:50:58;1.00;;;0.90;;
8895;SDS011;4484;48.928;10.066;2024-02-04T04:53:25;1.00;;;0.83;;
8895;SDS011;4484;48.928;10.066;2024-02-04T04:55:52;0.73;;;0.73;;
8895;SDS011;4484;48.928;10.066;2024-02-04T04:58:19;1.90;;;0.77;;
8895;SDS011;4484;48.928;10.066;2024-02-04T05:00:45;0.83;;;0.83;;
8895;SDS011;4484;48.928;10.066;2024-02-04T05:03:12;1.03;;;0.70;;
8895;SDS011;4484;48.928;10.066;2024-02-04T05:05:39;0.70;;;0.50;;
8895;SDS011;4484;48.928;10.066;2024-02-04T05:08:06;0.93;;;0.83;;
8895;SDS011;4484;48.928;10.066;2024-02-04T05:10:33;0.63;;;0.60;;
8895;SDS011;4484;48.928;10.066;2024-02-04T05:13:00;0.73;;;0.70;;
8895;SDS011;4484;48.928;10.066;2024-02-04T05:15:27;0.70;;;0.70;;
8895;SDS011;4484;48.928;10.066;2024-02-04T05:17:56;1.13;;;0.83;;
8895;SDS011;4484;48.928;10.066;2024-02-04T05:20:23;1.73;;;0.80;;
8895;SDS011;4484;48.928;10.066;2024-02-04T05:22:50;0.83;;;0.70;;
8895;SDS011;4484;48.928;10.066;2024-02-04T05:25:16;1.13;;;0.90;;
8895;SDS011;4484;48.928;10.066;2024-02-04T05:27:43;1.00;;;0.70;;
8895;SDS011;4484;48.928;10.066;2024-02-04T05:30:10;2.27;;;0.80;;
8895;SDS011;4484;48.928;10.066;2024-02-04T05:32:38;1.10;;;1.00;;
8895;SDS011;4484;48.928;10.066;2024-02-04T05:35:05;2.03;;;0.90;;
8895;SDS011;4484;48.928;10.066;2024-02-04T05:37:34;0.70;;;0.70;;
8895;SDS011;4484;48.928;10.066;2024-02-04T05:40:01;1.20;;;1.10;;
8895;SDS011;4484;48.928;10.066;2024-02-04T05:42:28;1.73;;;1.00;;
8895;SDS011;4484;48.928;10.066;2024-02-04T05:44:55;1.77;;;1.00;;
8895;SDS011;4484;48.928;10.066;2024-02-04T05:47:22;1.00;;;0.90;;
8895;SDS011;4484;48.928;10.066;2024-02-04T05:49:49;1.00;;;0.90;;
8895;SDS011;4484;48.928;10.066;2024-02-04T05:52:16;1.53;;;1.00;;
8895;SDS011;4484;48.928;10.066;2024-02-04T05:54:43;0.80;;;0.80;;
8895;SDS011;4484;48.928;10.066;2024-02-04T05:57:11;1.93;;;1.00;;
8895;SDS011;4484;48.928;10.066;2024-02-04T05:59:38;1.73;;;0.90;;
8895;SDS011;4484;48.928;10.066;2024-02-04T06:02:05;1.10;;;1.00;;
8895;SDS011;4484;48.928;10.066;2024-02-04T06:04:32;1.20;;;1.10;;
8895;SDS011;4484;48.928;10.066;2024-02-04T06:06:59;4.13;;;2.83;;
8895;SDS011;4484;48.928;10.066;2024-02-04T06:09:26;6.23;;;4.27;;
8895;SDS011;4484;48.928;10.066;2024-02-04T06:11:53;2.67;;;2.13;;
8895;SDS011;4484;48.928;10.066;2024-02-04T06:14:20;1.27;;;1.17;;
8895;SDS011;4484;48.928;10.066;2024-02-04T06:16:47;1.67;;;1.17;;
8895;SDS011;4484;48.928;10.066;2024-02-04T06:19:13;1.43;;;1.03;;
8895;SDS011;4484;48.928;10.066;2024-02-04T06:21:41;4.37;;;1.83;;
8895;SDS011;4484;48.928;10.066;2024-02-04T06:24:08;2.03;;;1.50;;
8895;SDS011;4484;48.928;10.066;2024-02-04T06:26:38;1.77;;;1.10;;
8895;SDS011;4484;48.928;10.066;2024-02-04T06:29:05;2.00;;;1.47;;
8895;SDS011;4484;48.928;10.066;2024-02-04T06:31:32;2.40;;;1.60;;
8895;SDS011;4484;48.928;10.066;2024-02-04T06:33:59;2.40;;;1.83;;
8895;SDS011;4484;48.928;10.066;2024-02-04T06:36:27;3.47;;;2.20;;
8895;SDS011;4484;48.928;10.066;2024-02-04T06:38:54;3.40;;;1.80;;
8895;SDS011;4484;48.928;10.066;2024-02-04T06:41:21;1.77;;;1.27;;
8895;SDS011;4484;48.928;10.066;2024-02-04T06:43:48;3.30;;;1.00;;
8895;SDS011;4484;48.928;10.066;2024-02-04T06:46:23;4.43;;;1.30;;
8895;SDS011;4484;48.928;10.066;2024-02-04T06:48:51;0.93;;;0.83;;
8895;SDS011;4484;48.928;10.066;2024-02-04T06:51:18;1.70;;;1.17;;
8895;SDS011;4484;48.928;10.066;2024-02-04T06:53:45;1.23;;;1.10;;
8895;SDS011;4484;48.928;10.066;2024-02-04T06:56:12;1.10;;;1.00;;
8895;SDS011;4484;48.928;10.066;2024-02-04T06:58:40;2.50;;;1.20;;
8895;SDS011;4484;48.928;10.066;2024-02-04T07:01:08;1.80;;;1.10;;
8895;SDS011;4484;48.928;10.066;2024-02-04T07:03:35;2.53;;;1.00;;
8895;SDS011;4484;48.928;10.066;2024-02-04T07:06:02;1.27;;;1.10;;
8895;SDS011;4484;48.928;10.066;2024-02-04T07:08:29;1.97;;;1.10;;
8895;SDS011;4484;48.928;10.066;2024-02-04T07:10:56;1.30;;;1.10;;
8895;SDS011;4484;48.928;10.066;2024-02-04T07:13:25;2.13;;;1.23;;
8895;SDS011;4484;48.928;10.066;2024-02-04T07:15:52;1.10;;;0.97;;
8895;SDS011;4484;48.928;10.066;2024-02-04T07:18:21;1.47;;;1.37;;
8895;SDS011;4484;48.928;10.066;2024-02-04T07:20:48;1.20;;;1.10;;
8895;SDS011;4484;48.928;10.066;2024-02-04T07:23:15;3.17;;;1.80;;
8895;SDS011;4484;48.928;10.066;2024-02-04T07:25:42;1.23;;;1.00;;
8895;SDS011;4484;48.928;10.066;2024-02-04T07:28:09;1.67;;;1.10;;
8895;SDS011;4484;48.928;10.066;2024-02-04T07:30:36;3.30;;;1.50;;
8895;SDS011;4484;48.928;10.066;2024-02-04T07:33:04;1.93;;;1.03;;
8895;SDS011;4484;48.928;10.066;2024-02-04T07:35:31;3.67;;;1.30;;
8895;SDS011;4484;48.928;10.066;2024-02-04T07:37:58;0.90;;;0.80;;
8895;SDS011;4484;48.928;10.066;2024-02-04T07:40:25;1.73;;;1.23;;
8895;SDS011;4484;48.928;10.066;2024-02-04T07:42:54;1.63;;;0.83;;
8895;SDS011;4484;48.928;10.066;2024-02-04T07:45:21;0.97;;;0.60;;
8895;SDS011;4484;48.928;10.066;2024-02-04T07:47:48;1.10;;;1.00;;
8895;SDS011;4484;48.928;10.066;2024-02-04T07:50:15;1.07;;;0.90;;
8895;SDS011;4484;48.928;10.066;2024-02-04T07:52:42;0.80;;;0.80;;
8895;SDS011;4484;48.928;10.066;2024-02-04T07:55:10;2.80;;;1.40;;
8895;SDS011;4484;48.928;10.066;2024-02-04T07:57:37;1.40;;;1.30;;
8895;SDS011;4484;48.928;10.066;2024-02-04T08:00:05;2.90;;;2.03;;
8895;SDS011;4484;48.928;10.066;2024-02-04T08:02:37;0.60;;;0.60;;
8895;SDS011;4484;48.928;10.066;2024-02-04T08:05:04;0.80;;;0.80;;
8895;SDS011;4484;48.928;10.066;2024-02-04T08:07:32;0.60;;;0.60;;
8895;SDS011;4484;48.928;10.066;2024-02-04T08:09:59;2.03;;;0.73;;
8895;SDS011;4484;48.928;10.066;2024-02-04T08:12:26;1.17;;;0.80;;
8895;SDS011;4484;48.928;10.066;2024-02-04T08:14:53;1.60;;;0.70;;
8895;SDS011;4484;48.928;10.066;2024-02-04T08:17:20;1.53;;;0.73;;
8895;SDS011;4484;48.928;10.066;2024-02-04T08:19:47;1.67;;;0.80;;
8895;SDS011;4484;48.928;10.066;2024-02-04T08:22:14;0.57;;;0.57;;
8895;SDS011;4484;48.928;10.066;2024-02-04T08:24:44;2.60;;;1.00;;
8895;SDS011;4484;48.928;10.066;2024-02-04T08:27:11;1.00;;;0.80;;
8895;SDS011;4484;48.928;10.066;2024-02-04T08:29:38;0.80;;;0.80;;
8895;SDS011;4484;48.928;10.066;2024-02-04T08:32:05;1.73;;;1.17;;
8895;SDS011;4484;48.928;10.066;2024-02-04T08:34:32;0.80;;;0.80;;
8895;SDS011;4484;48.928;10.066;2024-02-04T08:36:59;1.10;;;0.90;;
8895;SDS011;4484;48.928;10.066;2024-02-04T08:39:26;0.60;;;0.57;;
8895;SDS011;4484;48.928;10.066;2024-02-04T08:41:53;0.63;;;0.60;;
8895;SDS011;4484;48.928;10.066;2024-02-04T08:44:20;1.00;;;0.90;;
8895;SDS011;4484;48.928;10.066;2024-02-04T08:47:01;2.53;;;0.70;;
8895;SDS011;4484;48.928;10.066;2024-02-04T08:49:29;0.70;;;0.60;;
8895;SDS011;4484;48.928;10.066;2024-02-04T08:51:56;0.70;;;0.70;;
8895;SDS011;4484;48.928;10.066;2024-02-04T08:54:23;4.27;;;3.07;;
8895;SDS011;4484;48.928;10.066;2024-02-04T08:56:50;1.73;;;1.63;;
8895;SDS011;4484;48.928;10.066;2024-02-04T08:59:16;1.10;;;1.00;;
8895;SDS011;4484;48.928;10.066;2024-02-04T09:01:44;1.03;;;0.93;;
8895;SDS011;4484;48.928;10.066;2024-02-04T09:04:11;1.13;;;0.73;;
8895;SDS011;4484;48.928;10.066;2024-02-04T09:06:38;0.70;;;0.63;;
8895;SDS011;4484;48.928;10.066;2024-02-04T09:09:05;0.90;;;0.50;;
8895;SDS011;4484;48.928;10.066;2024-02-04T09:11:32;0.70;;;0.60;;
8895;SDS011;4484;48.928;10.066;2024-02-04T09:13:58;0.50;;;0.50;;
8895;SDS011;4484;48.928;10.066;2024-02-04T09:16:25;0.57;;;0.40;;
8895;SDS011;4484;48.928;10.066;2024-02-04T09:18:52;0.63;;;0.50;;
8895;SDS011;4484;48.928;10.066;2024-02-04T09:21:19;0.90;;;0.60;;
8895;SDS011;4484;48.928;10.066;2024-02-04T09:23:46;0.50;;;0.40;;
8895;SDS011;4484;48.928;10.066;2024-02-04T09:26:13;0.60;;;0.40;;
8895;SDS011;4484;48.928;10.066;2024-02-04T09:28:44;0.87;;;0.40;;
8895;SDS011;4484;48.928;10.066;2024-02-04T09:31:11;3.87;;;0.60;;
8895;SDS011;4484;48.928;10.066;2024-02-04T09:33:39;1.77;;;0.50;;
8895;SDS011;4484;48.928;10.066;2024-02-04T09:36:07;0.57;;;0.57;;
8895;SDS011;4484;48.928;10.066;2024-02-04T09:38:34;1.10;;;0.80;;
8895;SDS011;4484;48.928;10.066;2024-02-04T09:41:01;2.47;;;2.27;;
8895;SDS011;4484;48.928;10.066;2024-02-04T09:43:33;0.63;;;0.50;;
8895;SDS011;4484;48.928;10.066;2024-02-04T09:46:04;1.17;;;1.07;;
8895;SDS011;4484;48.928;10.066;2024-02-04T09:48:32;1.63;;;0.70;;
8895;SDS011;4484;48.928;10.066;2024-02-04T09:51:00;0.50;;;0.50;;
8895;SDS011;4484;48.928;10.066;2024-02-04T09:53:33;1.70;;;0.57;;
8895;SDS011;4484;48.928;10.066;2024-02-04T09:56:04;1.20;;;0.40;;
8895;SDS011;4484;48.928;10.066;2024-02-04T09:58:33;1.50;;;1.40;;
8895;SDS011;4484;48.928;10.066;2024-02-04T10:01:01;1.87;;;0.70;;
8895;SDS011;4484;48.928;10.066;2024-02-04T10:03:30;0.40;;;0.40;;
8895;SDS011;4484;48.928;10.066;2024-02-04T10:05:58;0.60;;;0.60;;
8895;SDS011;4484;48.928;10.066;2024-02-04T10:08:25;0.53;;;0.53;;
8895;SDS011;4484;48.928;10.066;2024-02-04T10:10:52;0.37;;;0.37;;
8895;SDS011;4484;48.928;10.066;2024-02-04T10:13:21;0.50;;;0.50;;
8895;SDS011;4484;48.928;10.066;2024-02-04T10:15:48;1.17;;;0.60;;
8895;SDS011;4484;48.928;10.066;2024-02-04T10:18:16;1.00;;;0.90;;
8895;SDS011;4484;48.928;10.066;2024-02-04T10:20:44;0.53;;;0.47;;
8895;SDS011;4484;48.928;10.066;2024-02-04T10:23:11;0.40;;;0.30;;
8895;SDS011;4484;48.928;10.066;2024-02-04T10:25:37;0.40;;;0.40;;
8895;SDS011;4484;48.928;10.066;2024-02-04T10:28:05;0.47;;;0.47;;
8895;SDS011;4484;48.928;10.066;2024-02-04T10:30:32;1.07;;;0.30;;
8895;SDS011;4484;48.928;10.066;2024-02-04T10:33:00;1.30;;;0.60;;
8895;SDS011;4484;48.928;10.066;2024-02-04T10:35:27;0.80;;;0.47;;
8895;SDS011;4484;48.928;10.066;2024-02-04T10:37:54;0.30;;;0.30;;
8895;SDS011;4484;48.928;10.066;2024-02-04T10:40:21;3.40;;;0.60;;
8895;SDS011;4484;48.928;10.066;2024-02-04T10:42:48;1.83;;;0.60;;
8895;SDS011;4484;48.928;10.066;2024-02-04T10:45:17;1.77;;;0.70;;
8895;SDS011;4484;48.928;10.066;2024-02-04T10:47:46;0.70;;;0.67;;
8895;SDS011;4484;48.928;10.066;2024-02-04T10:50:23;1.37;;;0.60;;
8895;SDS011;4484;48.928;10.066;2024-02-04T10:52:52;0.50;;;0.40;;
8895;SDS011;4484;48.928;10.066;2024-02-04T10:55:25;0.60;;;0.40;;
8895;SDS011;4484;48.928;10.066;2024-02-04T10:57:55;1.50;;;0.60;;
8895;SDS011;4484;48.928;10.066;2024-02-04T11:00:23;0.50;;;0.50;;
8895;SDS011;4484;48.928;10.066;2024-02-04T11:02:51;2.17;;;0.97;;
8895;SDS011;4484;48.928;10.066;2024-02-04T11:05:20;0.40;;;0.40;;
8895;SDS011;4484;48.928;10.066;2024-02-04T11:07:49;1.77;;;1.17;;
8895;SDS011;4484;48.928;10.066;2024-02-04T11:10:17;0.50;;;0.50;;
8895;SDS011;4484;48.928;10.066;2024-02-04T11:12:45;2.27;;;0.40;;
8895;SDS011;4484;48.928;10.066;2024-02-04T11:15:13;1.00;;;0.67;;
8895;SDS011;4484;48.928;10.066;2024-02-04T11:20:43;0.77;;;0.50;;
8895;SDS011;4484;48.928;10.066;2024-02-04T11:23:41;0.60;;;0.47;;
8895;SDS011;4484;48.928;10.066;2024-02-04T11:26:09;0.77;;;0.40;;
8895;SDS011;4484;48.928;10.066;2024-02-04T11:28:37;1.07;;;0.37;;
8895;SDS011;4484;48.928;10.066;2024-02-04T11:31:13;0.50;;;0.50;;
8895;SDS011;4484;48.928;10.066;2024-02-04T11:33:52;0.87;;;0.47;;
8895;SDS011;4484;48.928;10.066;2024-02-04T11:36:23;0.50;;;0.40;;
8895;SDS011;4484;48.928;10.066;2024-02-04T11:38:51;1.07;;;0.63;;
8895;SDS011;4484;48.928;10.066;2024-02-04T11:41:22;0.60;;;0.50;;
8895;SDS011;4484;48.928;10.066;2024-02-04T11:43:55;0.83;;;0.47;;
8895;SDS011;4484;48.928;10.066;2024-02-04T11:46:30;0.40;;;0.40;;
8895;SDS011;4484;48.928;10.066;2024-02-04T11:49:00;0.87;;;0.60;;
8895;SDS011;4484;48.928;10.066;2024-02-04T11:51:28;1.60;;;0.70;;
8895;SDS011;4484;48.928;10.066;2024-02-04T11:53:55;0.60;;;0.50;;
8895;SDS011;4484;48.928;10.066;2024-02-04T11:56:23;1.03;;;0.70;;
8895;SDS011;4484;48.928;10.066;2024-02-04T11:58:51;0.43;;;0.43;;
8895;SDS011;4484;48.928;10.066;2024-02-04T12:01:21;0.73;;;0.50;;
8895;SDS011;4484;48.928;10.066;2024-02-04T12:03:48;0.93;;;0.70;;
8895;SDS011;4484;48.928;10.066;2024-02-04T12:06:16;1.37;;;1.17;;
8895;SDS011;4484;48.928;10.066;2024-02-04T12:08:43;1.23;;;0.50;;
8895;SDS011;4484;48.928;10.066;2024-02-04T12:11:10;0.80;;;0.53;;
8895;SDS011;4484;48.928;10.066;2024-02-04T12:13:37;1.17;;;0.60;;
8895;SDS011;4484;48.928;10.066;2024-02-04T12:16:08;1.00;;;0.60;;
8895;SDS011;4484;48.928;10.066;2024-02-04T12:18:35;0.60;;;0.60;;
8895;SDS011;4484;48.928;10.066;2024-02-04T12:21:02;1.43;;;0.60;;
8895;SDS011;4484;48.928;10.066;2024-02-04T12:23:30;0.70;;;0.63;;
8895;SDS011;4484;48.928;10.066;2024-02-04T12:25:57;0.67;;;0.53;;
8895;SDS011;4484;48.928;10.066;2024-02-04T12:28:24;5.63;;;0.70;;
8895;SDS011;4484;48.928;10.066;2024-02-04T12:30:52;0.63;;;0.60;;
8895;SDS011;4484;48.928;10.066;2024-02-04T12:33:25;0.47;;;0.47;;
8895;SDS011;4484;48.928;10.066;2024-02-04T12:35:52;0.70;;;0.60;;
8895;SDS011;4484;48.928;10.066;2024-02-04T12:38:22;0.60;;;0.50;;
8895;SDS011;4484;48.928;10.066;2024-02-04T12:40:49;0.73;;;0.67;;
8895;SDS011;4484;48.928;10.066;2024-02-04T12:43:17;1.17;;;0.83;;
8895;SDS011;4484;48.928;10.066;2024-02-04T12:45:44;0.50;;;0.50;;
8895;SDS011;4484;48.928;10.066;2024-02-04T12:48:13;0.60;;;0.60;;
8895;SDS011;4484;48.928;10.066;2024-02-04T12:50:42;0.93;;;0.70;;
8895;SDS011;4484;48.928;10.066;2024-02-04T12:53:09;0.33;;;0.33;;
8895;SDS011;4484;48.928;10.066;2024-02-04T12:55:40;0.80;;;0.50;;
8895;SDS011;4484;48.928;10.066;2024-02-04T12:58:09;0.50;;;0.50;;
8895;SDS011;4484;48.928;10.066;2024-02-04T13:00:39;0.33;;;0.33;;
8895;SDS011;4484;48.928;10.066;2024-02-04T13:03:07;1.00;;;0.53;;
8895;SDS011;4484;48.928;10.066;2024-02-04T13:05:35;1.07;;;0.53;;
8895;SDS011;4484;48.928;10.066;2024-02-04T13:08:03;1.13;;;0.47;;
8895;SDS011;4484;48.928;10.066;2024-02-04T13:10:32;1.03;;;0.40;;
8895;SDS011;4484;48.928;10.066;2024-02-04T13:13:07;1.10;;;0.80;;
8895;SDS011;4484;48.928;10.066;2024-02-04T13:15:39;0.83;;;0.60;;
8895;SDS011;4484;48.928;10.066;2024-02-04T13:18:07;0.40;;;0.40;;
8895;SDS011;4484;48.928;10.066;2024-02-04T13:20:37;0.37;;;0.37;;
8895;SDS011;4484;48.928;10.066;2024-02-04T13:23:04;1.10;;;0.63;;
8895;SDS011;4484;48.928;10.066;2024-02-04T13:25:32;1.17;;;0.50;;
8895;SDS011;4484;48.928;10.066;2024-02-04T13:28:00;1.17;;;0.70;;
8895;SDS011;4484;48.928;10.066;2024-02-04T13:30:27;0.90;;;0.77;;
8895;SDS011;4484;48.928;10.066;2024-02-04T13:32:55;0.90;;;0.40;;
8895;SDS011;4484;48.928;10.066;2024-02-04T13:35:24;0.50;;;0.50;;
8895;SDS011;4484;48.928;10.066;2024-02-04T13:37:51;0.40;;;0.40;;
8895;SDS011;4484;48.928;10.066;2024-02-04T13:40:19;0.57;;;0.57;;
8895;SDS011;4484;48.928;10.066;2024-02-04T13:42:47;0.53;;;0.50;;
8895;SDS011;4484;48.928;10.066;2024-02-04T13:45:14;0.50;;;0.50;;
8895;SDS011;4484;48.928;10.066;2024-02-04T13:47:41;0.87;;;0.50;;
8895;SDS011;4484;48.928;10.066;2024-02-04T13:50:09;1.17;;;0.50;;
8895;SDS011;4484;48.928;10.066;2024-02-04T13:52:38;0.73;;;0.67;;
8895;SDS011;4484;48.928;10.066;2024-02-04T13:55:06;1.40;;;0.93;;
8895;SDS011;4484;48.928;10.066;2024-02-04T13:57:34;2.23;;;1.67;;
8895;SDS011;4484;48.928;10.066;2024-02-04T14:00:02;0.80;;;0.60;;
8895;SDS011;4484;48.928;10.066;2024-02-04T14:02:32;2.00;;;1.50;;
8895;SDS011;4484;48.928;10.066;2024-02-04T14:04:59;0.90;;;0.70;;
8895;SDS011;4484;48.928;10.066;2024-02-04T14:07:27;1.50;;;1.30;;
8895;SDS011;4484;48.928;10.066;2024-02-04T14:09:54;1.80;;;0.80;;
8895;SDS011;4484;48.928;10.066;2024-02-04T14:12:22;1.03;;;0.67;;
8895;SDS011;4484;48.928;10.066;2024-02-04T14:14:49;1.53;;;0.97;;
8895;SDS011;4484;48.928;10.066;2024-02-04T14:17:16;1.60;;;1.10;;
8895;SDS011;4484;48.928;10.066;2024-02-04T14:19:43;0.30;;;0.30;;
8895;SDS011;4484;48.928;10.066;2024-02-04T14:22:15;0.80;;;0.60;;
8895;SDS011;4484;48.928;10.066;2024-02-04T14:24:44;0.60;;;0.50;;
8895;SDS011;4484;48.928;10.066;2024-02-04T14:27:12;1.10;;;0.63;;
8895;SDS011;4484;48.928;10.066;2024-02-04T14:29:39;0.53;;;0.47;;
8895;SDS011;4484;48.928;10.066;2024-02-04T14:32:06;0.40;;;0.40;;
8895;SDS011;4484;48.928;10.066;2024-02-04T14:34:34;2.83;;;1.47;;
8895;SDS011;4484;48.928;10.066;2024-02-04T14:37:01;1.80;;;1.20;;
8895;SDS011;4484;48.928;10.066;2024-02-04T14:39:28;1.00;;;0.90;;
8895;SDS011;4484;48.928;10.066;2024-02-04T14:41:58;1.90;;;1.00;;
8895;SDS011;4484;48.928;10.066;2024-02-04T14:44:25;1.00;;;0.90;;
8895;SDS011;4484;48.928;10.066;2024-02-04T14:46:51;0.87;;;0.77;;
8895;SDS011;4484;48.928;10.066;2024-02-04T14:49:18;1.20;;;0.70;;
8895;SDS011;4484;48.928;10.066;2024-02-04T14:51:45;0.57;;;0.50;;
8895;SDS011;4484;48.928;10.066;2024-02-04T14:54:12;0.57;;;0.40;;
8895;SDS011;4484;48.928;10.066;2024-02-04T14:56:40;0.60;;;0.40;;
8895;SDS011;4484;48.928;10.066;2024-02-04T14:59:08;0.70;;;0.30;;
8895;SDS011;4484;48.928;10.066;2024-02-04T15:01:47;0.30;;;0.30;;
8895;SDS011;4484;48.928;10.066;2024-02-04T15:04:15;0.33;;;0.30;;
8895;SDS011;4484;48.928;10.066;2024-02-04T15:06:42;0.53;;;0.40;;
8895;SDS011;4484;48.928;10.066;2024-02-04T15:09:11;0.30;;;0.30;;
8895;SDS011;4484;48.928;10.066;2024-02-04T15:11:37;0.37;;;0.37;;